sensor_id;sensor_type;location;lat;lon;timestamp;temperature;humidity
64501;DHT22;50874;24.150;-110.320;2023-06-14T00:02:13;34.30;57.50
64501;DHT22;50874;24.150;-110.320;2023-06-14T00:04:40;34.10;57.20
64501;DHT22;50874;24.150;-110.320;2023-06-14T00:07:07;33.80;56.70
64501;DHT22;50874;24.150;-110.320;2023-06-14T00:09:34;33.60;57.60
64501;DHT22;50874;24.150;-110.320;2023-06-14T00:12:01;33.50;58.40
64501;DHT22;50874;24.150;-110.320;2023-06-14T00:14:28;33.90;58.70
64501;DHT22;50874;24.150;-110.320;2023-06-14T00:16:54;33.40;59.30
64501;DHT22;50874;24.150;-110.320;2023-06-14T00:19:25;33.40;59.70
64501;DHT22;50874;24.150;-110.320;2023-06-14T00:21:51;33.30;62.30
64501;DHT22;50874;24.150;-110.320;2023-06-14T00:24:19;33.20;66.90
64501;DHT22;50874;24.150;-110.320;2023-06-14T00:26:45;32.90;73.70
64501;DHT22;50874;24.150;-110.320;2023-06-14T00:29:12;32.80;75.70
64501;DHT22;50874;24.150;-110.320;2023-06-14T00:31:38;32.50;78.10
64501;DHT22;50874;24.150;-110.320;2023-06-14T00:34:05;32.40;80.00
64501;DHT22;50874;24.150;-110.320;2023-06-14T00:36:31;32.00;80.80
64501;DHT22;50874;24.150;-110.320;2023-06-14T00:38:58;32.00;81.00
64501;DHT22;50874;24.150;-110.320;2023-06-14T00:41:24;32.10;78.80
64501;DHT22;50874;24.150;-110.320;2023-06-14T00:43:51;32.10;78.70
64501;DHT22;50874;24.150;-110.320;2023-06-14T00:46:18;32.00;79.20
64501;DHT22;50874;24.150;-110.320;2023-06-14T00:48:46;31.90;77.20
64501;DHT22;50874;24.150;-110.320;2023-06-14T00:51:13;31.80;78.00
64501;DHT22;50874;24.150;-110.320;2023-06-14T00:53:39;31.70;77.40
64501;DHT22;50874;24.150;-110.320;2023-06-14T00:56:13;31.50;77.50
64501;DHT22;50874;24.150;-110.320;2023-06-14T00:58:41;31.30;78.40
64501;DHT22;50874;24.150;-110.320;2023-06-14T01:01:08;31.30;78.70
64501;DHT22;50874;24.150;-110.320;2023-06-14T01:03:35;31.50;78.30
64501;DHT22;50874;24.150;-110.320;2023-06-14T01:06:41;31.40;77.70
64501;DHT22;50874;24.150;-110.320;2023-06-14T01:15:02;31.20;79.30
64501;DHT22;50874;24.150;-110.320;2023-06-14T01:17:30;31.20;81.50
64501;DHT22;50874;24.150;-110.320;2023-06-14T01:20:02;31.20;82.40
64501;DHT22;50874;24.150;-110.320;2023-06-14T01:22:32;31.20;84.90
64501;DHT22;50874;24.150;-110.320;2023-06-14T01:24:59;31.20;84.80
64501;DHT22;50874;24.150;-110.320;2023-06-14T01:27:26;31.20;84.00
64501;DHT22;50874;24.150;-110.320;2023-06-14T01:29:58;31.10;83.30
64501;DHT22;50874;24.150;-110.320;2023-06-14T01:32:28;31.00;85.70
64501;DHT22;50874;24.150;-110.320;2023-06-14T01:34:55;30.80;86.10
64501;DHT22;50874;24.150;-110.320;2023-06-14T01:37:22;30.90;84.30
64501;DHT22;50874;24.150;-110.320;2023-06-14T01:39:49;30.80;83.10
64501;DHT22;50874;24.150;-110.320;2023-06-14T01:42:16;30.80;83.00
64501;DHT22;50874;24.150;-110.320;2023-06-14T01:44:44;30.80;81.80
64501;DHT22;50874;24.150;-110.320;2023-06-14T01:47:12;30.80;82.50
64501;DHT22;50874;24.150;-110.320;2023-06-14T01:49:39;30.80;83.20
64501;DHT22;50874;24.150;-110.320;2023-06-14T01:52:06;30.60;82.50
64501;DHT22;50874;24.150;-110.320;2023-06-14T01:54:35;30.50;87.00
64501;DHT22;50874;24.150;-110.320;2023-06-14T01:57:08;30.50;87.10
64501;DHT22;50874;24.150;-110.320;2023-06-14T01:59:34;30.60;87.70
64501;DHT22;50874;24.150;-110.320;2023-06-14T02:02:03;30.60;90.60
64501;DHT22;50874;24.150;-110.320;2023-06-14T02:04:29;30.60;91.50
64501;DHT22;50874;24.150;-110.320;2023-06-14T02:06:56;30.50;91.90
64501;DHT22;50874;24.150;-110.320;2023-06-14T02:09:22;30.40;92.30
64501;DHT22;50874;24.150;-110.320;2023-06-14T02:11:49;30.20;92.60
64501;DHT22;50874;24.150;-110.320;2023-06-14T02:14:16;30.10;93.30
64501;DHT22;50874;24.150;-110.320;2023-06-14T02:16:43;30.00;95.80
64501;DHT22;50874;24.150;-110.320;2023-06-14T02:19:18;29.90;97.50
64501;DHT22;50874;24.150;-110.320;2023-06-14T02:21:45;29.80;97.70
64501;DHT22;50874;24.150;-110.320;2023-06-14T02:24:11;29.70;98.60
64501;DHT22;50874;24.150;-110.320;2023-06-14T02:26:38;29.70;99.30
64501;DHT22;50874;24.150;-110.320;2023-06-14T02:29:05;29.70;99.90
64501;DHT22;50874;24.150;-110.320;2023-06-14T02:31:32;29.70;99.90
64501;DHT22;50874;24.150;-110.320;2023-06-14T02:33:59;29.50;99.90
64501;DHT22;50874;24.150;-110.320;2023-06-14T02:36:25;29.40;99.90
64501;DHT22;50874;24.150;-110.320;2023-06-14T02:38:52;29.40;99.90
64501;DHT22;50874;24.150;-110.320;2023-06-14T02:41:20;29.40;99.90
64501;DHT22;50874;24.150;-110.320;2023-06-14T02:43:46;29.20;99.90
64501;DHT22;50874;24.150;-110.320;2023-06-14T02:46:12;29.20;99.90
64501;DHT22;50874;24.150;-110.320;2023-06-14T02:48:39;29.20;99.90
64501;DHT22;50874;24.150;-110.320;2023-06-14T02:51:05;29.10;99.90
64501;DHT22;50874;24.150;-110.320;2023-06-14T02:53:34;29.00;99.90
64501;DHT22;50874;24.150;-110.320;2023-06-14T02:56:01;29.00;99.90
64501;DHT22;50874;24.150;-110.320;2023-06-14T02:58:29;28.90;99.90
64501;DHT22;50874;24.150;-110.320;2023-06-14T03:00:55;29.00;99.90
64501;DHT22;50874;24.150;-110.320;2023-06-14T03:03:22;28.90;99.90
64501;DHT22;50874;24.150;-110.320;2023-06-14T03:05:50;28.90;99.90
64501;DHT22;50874;24.150;-110.320;2023-06-14T03:08:18;28.90;99.90
64501;DHT22;50874;24.150;-110.320;2023-06-14T03:10:46;28.90;99.90
64501;DHT22;50874;24.150;-110.320;2023-06-14T03:13:14;29.00;99.90
64501;DHT22;50874;24.150;-110.320;2023-06-14T03:15:42;29.00;99.90
64501;DHT22;50874;24.150;-110.320;2023-06-14T03:18:09;28.90;99.90
64501;DHT22;50874;24.150;-110.320;2023-06-14T03:20:36;28.80;99.90
64501;DHT22;50874;24.150;-110.320;2023-06-14T03:23:03;28.70;99.90
64501;DHT22;50874;24.150;-110.320;2023-06-14T03:25:31;28.70;99.90
64501;DHT22;50874;24.150;-110.320;2023-06-14T03:28:02;28.70;99.90
64501;DHT22;50874;24.150;-110.320;2023-06-14T03:30:29;28.70;99.90
64501;DHT22;50874;24.150;-110.320;2023-06-14T03:32:55;28.70;99.90
64501;DHT22;50874;24.150;-110.320;2023-06-14T03:35:23;28.70;99.90
64501;DHT22;50874;24.150;-110.320;2023-06-14T03:37:49;28.60;99.90
64501;DHT22;50874;24.150;-110.320;2023-06-14T03:40:19;28.60;99.90
64501;DHT22;50874;24.150;-110.320;2023-06-14T03:42:54;28.60;99.90
64501;DHT22;50874;24.150;-110.320;2023-06-14T03:45:21;28.60;99.90
64501;DHT22;50874;24.150;-110.320;2023-06-14T03:47:47;28.50;99.90
64501;DHT22;50874;24.150;-110.320;2023-06-14T03:50:14;28.40;99.90
64501;DHT22;50874;24.150;-110.320;2023-06-14T03:52:41;28.30;99.90
64501;DHT22;50874;24.150;-110.320;2023-06-14T03:55:09;28.30;99.90
64501;DHT22;50874;24.150;-110.320;2023-06-14T03:57:39;28.30;99.90
64501;DHT22;50874;24.150;-110.320;2023-06-14T04:00:06;28.20;99.90
64501;DHT22;50874;24.150;-110.320;2023-06-14T04:02:33;28.20;99.90
64501;DHT22;50874;24.150;-110.320;2023-06-14T04:05:00;28.20;99.90
64501;DHT22;50874;24.150;-110.320;2023-06-14T04:07:28;28.10;99.90
64501;DHT22;50874;24.150;-110.320;2023-06-14T04:09:55;28.00;99.90
64501;DHT22;50874;24.150;-110.320;2023-06-14T04:12:21;28.00;99.90
64501;DHT22;50874;24.150;-110.320;2023-06-14T04:14:48;27.90;99.90
64501;DHT22;50874;24.150;-110.320;2023-06-14T04:17:14;27.90;99.90
64501;DHT22;50874;24.150;-110.320;2023-06-14T04:19:41;27.80;99.90
64501;DHT22;50874;24.150;-110.320;2023-06-14T04:22:07;27.80;99.90
64501;DHT22;50874;24.150;-110.320;2023-06-14T04:24:34;27.80;99.90
64501;DHT22;50874;24.150;-110.320;2023-06-14T04:27:01;27.70;99.90
64501;DHT22;50874;24.150;-110.320;2023-06-14T04:29:28;27.70;99.90
64501;DHT22;50874;24.150;-110.320;2023-06-14T04:31:55;27.70;99.90
64501;DHT22;50874;24.150;-110.320;2023-06-14T04:34:28;27.70;99.90
64501;DHT22;50874;24.150;-110.320;2023-06-14T04:37:00;27.70;99.90
64501;DHT22;50874;24.150;-110.320;2023-06-14T04:39:27;27.60;99.90
64501;DHT22;50874;24.150;-110.320;2023-06-14T04:41:54;27.50;98.10
64501;DHT22;50874;24.150;-110.320;2023-06-14T04:44:23;27.20;96.90
64501;DHT22;50874;24.150;-110.320;2023-06-14T04:46:58;27.10;96.80
64501;DHT22;50874;24.150;-110.320;2023-06-14T04:49:25;27.00;96.80
64501;DHT22;50874;24.150;-110.320;2023-06-14T04:51:53;26.90;96.90
64501;DHT22;50874;24.150;-110.320;2023-06-14T04:54:27;26.80;97.10
64501;DHT22;50874;24.150;-110.320;2023-06-14T04:56:56;26.80;97.30
64501;DHT22;50874;24.150;-110.320;2023-06-14T04:59:22;26.70;97.50
64501;DHT22;50874;24.150;-110.320;2023-06-14T05:01:50;26.70;97.80
64501;DHT22;50874;24.150;-110.320;2023-06-14T05:04:20;26.60;97.80
64501;DHT22;50874;24.150;-110.320;2023-06-14T05:06:48;26.40;98.10
64501;DHT22;50874;24.150;-110.320;2023-06-14T05:09:17;26.30;98.50
64501;DHT22;50874;24.150;-110.320;2023-06-14T05:11:44;26.30;98.60
64501;DHT22;50874;24.150;-110.320;2023-06-14T05:14:14;26.10;99.10
64501;DHT22;50874;24.150;-110.320;2023-06-14T05:16:40;26.00;99.70
64501;DHT22;50874;24.150;-110.320;2023-06-14T05:19:07;26.00;99.90
64501;DHT22;50874;24.150;-110.320;2023-06-14T05:21:33;25.80;99.90
64501;DHT22;50874;24.150;-110.320;2023-06-14T05:24:01;25.70;99.90
64501;DHT22;50874;24.150;-110.320;2023-06-14T05:26:27;25.60;99.90
64501;DHT22;50874;24.150;-110.320;2023-06-14T05:28:57;25.60;99.90
64501;DHT22;50874;24.150;-110.320;2023-06-14T05:31:24;25.50;99.90
64501;DHT22;50874;24.150;-110.320;2023-06-14T05:33:52;25.50;99.90
64501;DHT22;50874;24.150;-110.320;2023-06-14T05:36:20;25.40;99.90
64501;DHT22;50874;24.150;-110.320;2023-06-14T05:38:49;25.40;99.90
64501;DHT22;50874;24.150;-110.320;2023-06-14T05:41:16;25.30;99.90
64501;DHT22;50874;24.150;-110.320;2023-06-14T05:43:43;25.30;99.90
64501;DHT22;50874;24.150;-110.320;2023-06-14T05:46:09;25.20;99.90
64501;DHT22;50874;24.150;-110.320;2023-06-14T05:48:36;25.20;99.90
64501;DHT22;50874;24.150;-110.320;2023-06-14T05:51:03;25.10;99.90
64501;DHT22;50874;24.150;-110.320;2023-06-14T05:53:29;25.00;99.90
64501;DHT22;50874;24.150;-110.320;2023-06-14T05:55:56;25.00;99.90
64501;DHT22;50874;24.150;-110.320;2023-06-14T05:58:22;24.90;99.90
64501;DHT22;50874;24.150;-110.320;2023-06-14T06:00:49;24.90;99.90
64501;DHT22;50874;24.150;-110.320;2023-06-14T06:03:16;24.90;99.90
64501;DHT22;50874;24.150;-110.320;2023-06-14T06:05:43;24.80;99.90
64501;DHT22;50874;24.150;-110.320;2023-06-14T06:08:09;24.80;99.90
64501;DHT22;50874;24.150;-110.320;2023-06-14T06:10:36;24.80;99.90
64501;DHT22;50874;24.150;-110.320;2023-06-14T06:13:02;24.80;99.90
64501;DHT22;50874;24.150;-110.320;2023-06-14T06:15:29;24.80;99.90
64501;DHT22;50874;24.150;-110.320;2023-06-14T06:17:55;24.80;99.90
64501;DHT22;50874;24.150;-110.320;2023-06-14T06:20:23;24.80;99.90
64501;DHT22;50874;24.150;-110.320;2023-06-14T06:22:54;24.70;99.90
64501;DHT22;50874;24.150;-110.320;2023-06-14T06:25:21;24.70;99.90
64501;DHT22;50874;24.150;-110.320;2023-06-14T06:27:48;24.70;99.90
64501;DHT22;50874;24.150;-110.320;2023-06-14T06:30:15;24.70;99.90
64501;DHT22;50874;24.150;-110.320;2023-06-14T06:32:42;24.60;99.90
64501;DHT22;50874;24.150;-110.320;2023-06-14T06:35:08;24.60;99.90
64501;DHT22;50874;24.150;-110.320;2023-06-14T06:37:37;24.60;99.90
64501;DHT22;50874;24.150;-110.320;2023-06-14T06:40:06;24.60;99.90
64501;DHT22;50874;24.150;-110.320;2023-06-14T06:42:33;24.70;99.90
64501;DHT22;50874;24.150;-110.320;2023-06-14T06:44:59;24.70;99.90
64501;DHT22;50874;24.150;-110.320;2023-06-14T06:47:29;24.70;99.90
64501;DHT22;50874;24.150;-110.320;2023-06-14T06:49:55;24.70;99.90
64501;DHT22;50874;24.150;-110.320;2023-06-14T06:52:21;24.70;99.90
64501;DHT22;50874;24.150;-110.320;2023-06-14T06:54:48;24.70;99.90
64501;DHT22;50874;24.150;-110.320;2023-06-14T06:57:16;24.80;99.90
64501;DHT22;50874;24.150;-110.320;2023-06-14T06:59:42;24.80;99.90
64501;DHT22;50874;24.150;-110.320;2023-06-14T07:02:09;24.80;99.90
64501;DHT22;50874;24.150;-110.320;2023-06-14T07:04:35;24.80;99.90
64501;DHT22;50874;24.150;-110.320;2023-06-14T07:07:03;24.80;99.90
64501;DHT22;50874;24.150;-110.320;2023-06-14T07:09:29;24.80;99.90
64501;DHT22;50874;24.150;-110.320;2023-06-14T07:11:56;24.80;99.90
64501;DHT22;50874;24.150;-110.320;2023-06-14T07:14:22;24.80;99.90
64501;DHT22;50874;24.150;-110.320;2023-06-14T07:16:50;24.80;99.90
64501;DHT22;50874;24.150;-110.320;2023-06-14T07:19:16;24.80;99.90
64501;DHT22;50874;24.150;-110.320;2023-06-14T07:21:43;24.80;99.90
64501;DHT22;50874;24.150;-110.320;2023-06-14T07:24:09;24.70;99.90
64501;DHT22;50874;24.150;-110.320;2023-06-14T07:26:36;24.70;99.90
64501;DHT22;50874;24.150;-110.320;2023-06-14T07:29:02;24.70;99.90
64501;DHT22;50874;24.150;-110.320;2023-06-14T07:31:29;24.70;99.90
64501;DHT22;50874;24.150;-110.320;2023-06-14T07:33:55;24.60;99.90
64501;DHT22;50874;24.150;-110.320;2023-06-14T07:36:22;24.60;99.90
64501;DHT22;50874;24.150;-110.320;2023-06-14T07:38:49;24.60;99.90
64501;DHT22;50874;24.150;-110.320;2023-06-14T07:41:16;24.60;99.90
64501;DHT22;50874;24.150;-110.320;2023-06-14T07:43:42;24.60;99.90
64501;DHT22;50874;24.150;-110.320;2023-06-14T07:46:09;24.50;99.90
64501;DHT22;50874;24.150;-110.320;2023-06-14T07:48:36;24.50;99.90
64501;DHT22;50874;24.150;-110.320;2023-06-14T07:51:02;24.40;99.90
64501;DHT22;50874;24.150;-110.320;2023-06-14T07:53:29;24.40;99.90
64501;DHT22;50874;24.150;-110.320;2023-06-14T07:55:57;24.30;99.90
64501;DHT22;50874;24.150;-110.320;2023-06-14T07:58:23;24.30;99.90
64501;DHT22;50874;24.150;-110.320;2023-06-14T08:00:52;24.30;99.90
64501;DHT22;50874;24.150;-110.320;2023-06-14T08:03:19;24.20;99.90
64501;DHT22;50874;24.150;-110.320;2023-06-14T08:05:46;24.20;99.90
64501;DHT22;50874;24.150;-110.320;2023-06-14T08:08:12;24.10;99.90
64501;DHT22;50874;24.150;-110.320;2023-06-14T08:10:39;23.90;99.90
64501;DHT22;50874;24.150;-110.320;2023-06-14T08:13:05;23.80;99.90
64501;DHT22;50874;24.150;-110.320;2023-06-14T08:15:32;23.70;99.90
64501;DHT22;50874;24.150;-110.320;2023-06-14T08:17:59;23.70;99.90
64501;DHT22;50874;24.150;-110.320;2023-06-14T08:20:27;23.60;99.90
64501;DHT22;50874;24.150;-110.320;2023-06-14T08:22:53;23.60;99.90
64501;DHT22;50874;24.150;-110.320;2023-06-14T08:25:23;23.60;99.90
64501;DHT22;50874;24.150;-110.320;2023-06-14T08:27:49;23.60;99.90
64501;DHT22;50874;24.150;-110.320;2023-06-14T08:30:16;23.60;99.90
64501;DHT22;50874;24.150;-110.320;2023-06-14T08:32:44;23.50;99.90
64501;DHT22;50874;24.150;-110.320;2023-06-14T08:35:10;23.50;99.90
64501;DHT22;50874;24.150;-110.320;2023-06-14T08:37:39;23.50;99.90
64501;DHT22;50874;24.150;-110.320;2023-06-14T08:42:40;23.40;99.90
64501;DHT22;50874;24.150;-110.320;2023-06-14T08:45:08;23.40;99.90
64501;DHT22;50874;24.150;-110.320;2023-06-14T08:47:34;23.40;99.90
64501;DHT22;50874;24.150;-110.320;2023-06-14T08:50:03;23.30;99.90
64501;DHT22;50874;24.150;-110.320;2023-06-14T08:52:32;23.30;99.90
64501;DHT22;50874;24.150;-110.320;2023-06-14T08:55:00;23.20;99.90
64501;DHT22;50874;24.150;-110.320;2023-06-14T08:57:29;23.20;99.90
64501;DHT22;50874;24.150;-110.320;2023-06-14T08:59:56;23.10;99.90
64501;DHT22;50874;24.150;-110.320;2023-06-14T09:02:23;23.10;99.90
64501;DHT22;50874;24.150;-110.320;2023-06-14T09:04:54;23.00;99.90
64501;DHT22;50874;24.150;-110.320;2023-06-14T09:07:25;23.00;99.90
64501;DHT22;50874;24.150;-110.320;2023-06-14T09:10:09;23.00;99.90
64501;DHT22;50874;24.150;-110.320;2023-06-14T09:12:36;22.90;99.90
64501;DHT22;50874;24.150;-110.320;2023-06-14T09:15:06;22.90;99.90
64501;DHT22;50874;24.150;-110.320;2023-06-14T09:17:38;22.90;99.90
64501;DHT22;50874;24.150;-110.320;2023-06-14T09:20:06;22.80;99.90
64501;DHT22;50874;24.150;-110.320;2023-06-14T09:22:37;22.90;99.90
64501;DHT22;50874;24.150;-110.320;2023-06-14T09:25:04;22.80;99.90
64501;DHT22;50874;24.150;-110.320;2023-06-14T09:27:31;22.90;99.90
64501;DHT22;50874;24.150;-110.320;2023-06-14T09:29:58;22.80;99.90
64501;DHT22;50874;24.150;-110.320;2023-06-14T09:32:25;22.80;99.90
64501;DHT22;50874;24.150;-110.320;2023-06-14T09:34:52;22.80;99.90
64501;DHT22;50874;24.150;-110.320;2023-06-14T09:37:32;22.80;99.90
64501;DHT22;50874;24.150;-110.320;2023-06-14T09:39:59;22.80;99.90
64501;DHT22;50874;24.150;-110.320;2023-06-14T09:42:25;22.80;99.90
64501;DHT22;50874;24.150;-110.320;2023-06-14T09:44:54;22.80;99.90
64501;DHT22;50874;24.150;-110.320;2023-06-14T09:47:22;22.80;99.90
64501;DHT22;50874;24.150;-110.320;2023-06-14T09:49:50;22.80;99.90
64501;DHT22;50874;24.150;-110.320;2023-06-14T09:52:20;22.70;99.90
64501;DHT22;50874;24.150;-110.320;2023-06-14T09:54:47;22.70;99.90
64501;DHT22;50874;24.150;-110.320;2023-06-14T09:57:22;22.70;99.90
64501;DHT22;50874;24.150;-110.320;2023-06-14T09:59:53;22.70;99.90
64501;DHT22;50874;24.150;-110.320;2023-06-14T10:02:31;22.70;99.90
64501;DHT22;50874;24.150;-110.320;2023-06-14T10:05:07;22.70;99.90
64501;DHT22;50874;24.150;-110.320;2023-06-14T10:08:04;22.70;99.90
64501;DHT22;50874;24.150;-110.320;2023-06-14T10:10:31;22.70;99.90
64501;DHT22;50874;24.150;-110.320;2023-06-14T10:12:58;22.70;99.90
64501;DHT22;50874;24.150;-110.320;2023-06-14T10:15:38;22.60;99.90
64501;DHT22;50874;24.150;-110.320;2023-06-14T10:18:30;22.70;99.90
64501;DHT22;50874;24.150;-110.320;2023-06-14T10:21:22;22.70;99.90
64501;DHT22;50874;24.150;-110.320;2023-06-14T10:23:51;22.70;99.90
64501;DHT22;50874;24.150;-110.320;2023-06-14T10:26:23;22.60;99.90
64501;DHT22;50874;24.150;-110.320;2023-06-14T10:29:22;22.60;99.90
64501;DHT22;50874;24.150;-110.320;2023-06-14T10:31:50;22.60;99.90
64501;DHT22;50874;24.150;-110.320;2023-06-14T10:34:24;22.60;99.90
64501;DHT22;50874;24.150;-110.320;2023-06-14T10:37:02;22.60;99.90
64501;DHT22;50874;24.150;-110.320;2023-06-14T10:39:29;22.60;99.90
64501;DHT22;50874;24.150;-110.320;2023-06-14T10:41:57;22.60;99.90
64501;DHT22;50874;24.150;-110.320;2023-06-14T10:46:53;22.70;99.90
64501;DHT22;50874;24.150;-110.320;2023-06-14T10:49:20;22.70;99.90
64501;DHT22;50874;24.150;-110.320;2023-06-14T10:51:50;22.80;99.90
64501;DHT22;50874;24.150;-110.320;2023-06-14T10:54:20;22.80;99.90
64501;DHT22;50874;24.150;-110.320;2023-06-14T10:56:50;22.90;99.90
64501;DHT22;50874;24.150;-110.320;2023-06-14T10:59:18;22.90;99.90
64501;DHT22;50874;24.150;-110.320;2023-06-14T11:04:50;22.80;99.90
64501;DHT22;50874;24.150;-110.320;2023-06-14T11:10:40;22.70;99.90
64501;DHT22;50874;24.150;-110.320;2023-06-14T11:13:09;22.70;99.90
64501;DHT22;50874;24.150;-110.320;2023-06-14T11:15:37;22.60;99.90
64501;DHT22;50874;24.150;-110.320;2023-06-14T11:18:07;22.50;99.90
64501;DHT22;50874;24.150;-110.320;2023-06-14T11:20:36;22.40;99.90
64501;DHT22;50874;24.150;-110.320;2023-06-14T11:23:04;22.20;99.90
64501;DHT22;50874;24.150;-110.320;2023-06-14T11:25:31;22.10;99.90
64501;DHT22;50874;24.150;-110.320;2023-06-14T11:27:58;22.00;99.90
64501;DHT22;50874;24.150;-110.320;2023-06-14T11:30:25;21.90;99.90
64501;DHT22;50874;24.150;-110.320;2023-06-14T11:32:53;21.80;99.90
64501;DHT22;50874;24.150;-110.320;2023-06-14T11:35:22;21.70;99.90
64501;DHT22;50874;24.150;-110.320;2023-06-14T11:37:55;21.60;99.90
64501;DHT22;50874;24.150;-110.320;2023-06-14T11:40:26;21.50;99.90
64501;DHT22;50874;24.150;-110.320;2023-06-14T11:43:01;21.40;99.90
64501;DHT22;50874;24.150;-110.320;2023-06-14T11:45:28;21.40;99.90
64501;DHT22;50874;24.150;-110.320;2023-06-14T11:47:58;21.40;99.90
64501;DHT22;50874;24.150;-110.320;2023-06-14T11:50:26;21.40;99.90
64501;DHT22;50874;24.150;-110.320;2023-06-14T11:52:58;21.30;99.90
64501;DHT22;50874;24.150;-110.320;2023-06-14T11:55:42;21.30;99.90
64501;DHT22;50874;24.150;-110.320;2023-06-14T11:58:10;21.30;99.90
64501;DHT22;50874;24.150;-110.320;2023-06-14T12:00:37;21.30;99.90
64501;DHT22;50874;24.150;-110.320;2023-06-14T12:03:04;21.20;99.90
64501;DHT22;50874;24.150;-110.320;2023-06-14T12:05:32;21.20;99.90
64501;DHT22;50874;24.150;-110.320;2023-06-14T12:08:01;21.20;99.90
64501;DHT22;50874;24.150;-110.320;2023-06-14T12:10:29;21.20;99.90
64501;DHT22;50874;24.150;-110.320;2023-06-14T12:12:59;21.10;99.90
64501;DHT22;50874;24.150;-110.320;2023-06-14T12:15:28;21.10;99.90
64501;DHT22;50874;24.150;-110.320;2023-06-14T12:17:55;21.00;99.90
64501;DHT22;50874;24.150;-110.320;2023-06-14T12:20:22;21.00;99.90
64501;DHT22;50874;24.150;-110.320;2023-06-14T12:22:53;20.90;99.90
64501;DHT22;50874;24.150;-110.320;2023-06-14T12:25:32;20.90;99.90
64501;DHT22;50874;24.150;-110.320;2023-06-14T12:28:09;20.80;99.90
64501;DHT22;50874;24.150;-110.320;2023-06-14T12:30:36;20.80;99.90
64501;DHT22;50874;24.150;-110.320;2023-06-14T12:33:04;20.70;99.90
64501;DHT22;50874;24.150;-110.320;2023-06-14T12:35:31;20.70;99.90
64501;DHT22;50874;24.150;-110.320;2023-06-14T12:37:58;20.70;99.90
64501;DHT22;50874;24.150;-110.320;2023-06-14T12:40:25;20.70;99.90
64501;DHT22;50874;24.150;-110.320;2023-06-14T12:42:52;20.60;99.90
64501;DHT22;50874;24.150;-110.320;2023-06-14T12:45:18;20.70;99.90
64501;DHT22;50874;24.150;-110.320;2023-06-14T12:47:45;20.70;99.90
64501;DHT22;50874;24.150;-110.320;2023-06-14T12:50:11;20.70;99.90
64501;DHT22;50874;24.150;-110.320;2023-06-14T12:52:38;20.90;99.90
64501;DHT22;50874;24.150;-110.320;2023-06-14T12:55:04;21.10;99.90
64501;DHT22;50874;24.150;-110.320;2023-06-14T12:57:31;21.30;99.90
64501;DHT22;50874;24.150;-110.320;2023-06-14T13:00:00;21.70;99.90
64501;DHT22;50874;24.150;-110.320;2023-06-14T13:02:26;21.90;99.90
64501;DHT22;50874;24.150;-110.320;2023-06-14T13:04:53;22.20;99.20
64501;DHT22;50874;24.150;-110.320;2023-06-14T13:07:19;22.40;98.60
64501;DHT22;50874;24.150;-110.320;2023-06-14T13:09:46;22.80;98.50
64501;DHT22;50874;24.150;-110.320;2023-06-14T13:12:12;23.00;97.10
64501;DHT22;50874;24.150;-110.320;2023-06-14T13:14:40;23.20;95.80
64501;DHT22;50874;24.150;-110.320;2023-06-14T13:17:08;23.30;94.90
64501;DHT22;50874;24.150;-110.320;2023-06-14T13:19:36;23.60;93.70
64501;DHT22;50874;24.150;-110.320;2023-06-14T13:22:03;23.90;92.80
64501;DHT22;50874;24.150;-110.320;2023-06-14T13:24:30;24.10;91.40
64501;DHT22;50874;24.150;-110.320;2023-06-14T13:26:57;24.50;91.10
64501;DHT22;50874;24.150;-110.320;2023-06-14T13:29:24;24.80;90.00
64501;DHT22;50874;24.150;-110.320;2023-06-14T13:31:50;24.80;87.00
64501;DHT22;50874;24.150;-110.320;2023-06-14T13:34:17;24.70;83.80
64501;DHT22;50874;24.150;-110.320;2023-06-14T13:36:43;25.10;82.30
64501;DHT22;50874;24.150;-110.320;2023-06-14T13:39:10;25.40;80.50
64501;DHT22;50874;24.150;-110.320;2023-06-14T13:41:39;25.70;75.90
64501;DHT22;50874;24.150;-110.320;2023-06-14T13:44:05;26.00;73.50
64501;DHT22;50874;24.150;-110.320;2023-06-14T13:46:32;26.30;68.80
64501;DHT22;50874;24.150;-110.320;2023-06-14T13:48:58;26.60;65.40
64501;DHT22;50874;24.150;-110.320;2023-06-14T13:51:27;27.00;65.70
64501;DHT22;50874;24.150;-110.320;2023-06-14T13:53:54;27.40;63.70
64501;DHT22;50874;24.150;-110.320;2023-06-14T13:56:21;27.70;63.70
64501;DHT22;50874;24.150;-110.320;2023-06-14T13:58:50;27.90;63.40
64501;DHT22;50874;24.150;-110.320;2023-06-14T14:01:18;28.20;63.00
64501;DHT22;50874;24.150;-110.320;2023-06-14T14:03:46;28.60;63.40
64501;DHT22;50874;24.150;-110.320;2023-06-14T14:06:13;29.00;64.20
64501;DHT22;50874;24.150;-110.320;2023-06-14T14:08:39;29.30;64.10
64501;DHT22;50874;24.150;-110.320;2023-06-14T14:11:07;29.60;62.80
64501;DHT22;50874;24.150;-110.320;2023-06-14T14:13:36;29.90;61.30
64501;DHT22;50874;24.150;-110.320;2023-06-14T14:16:04;30.30;60.30
64501;DHT22;50874;24.150;-110.320;2023-06-14T14:18:31;30.50;59.90
64501;DHT22;50874;24.150;-110.320;2023-06-14T14:20:58;30.60;58.70
64501;DHT22;50874;24.150;-110.320;2023-06-14T14:23:26;31.20;58.60
64501;DHT22;50874;24.150;-110.320;2023-06-14T14:25:53;31.30;58.00
64501;DHT22;50874;24.150;-110.320;2023-06-14T14:28:19;31.50;57.30
64501;DHT22;50874;24.150;-110.320;2023-06-14T14:30:47;31.80;56.30
64501;DHT22;50874;24.150;-110.320;2023-06-14T14:33:14;32.20;55.40
64501;DHT22;50874;24.150;-110.320;2023-06-14T14:35:44;32.40;55.80
64501;DHT22;50874;24.150;-110.320;2023-06-14T14:38:14;32.70;55.20
64501;DHT22;50874;24.150;-110.320;2023-06-14T14:40:47;32.80;55.90
64501;DHT22;50874;24.150;-110.320;2023-06-14T14:43:14;33.00;55.90
64501;DHT22;50874;24.150;-110.320;2023-06-14T14:45:40;33.30;56.00
64501;DHT22;50874;24.150;-110.320;2023-06-14T14:48:07;33.40;55.00
64501;DHT22;50874;24.150;-110.320;2023-06-14T14:50:33;33.70;54.40
64501;DHT22;50874;24.150;-110.320;2023-06-14T14:53:00;34.00;53.90
64501;DHT22;50874;24.150;-110.320;2023-06-14T14:55:26;34.20;54.10
64501;DHT22;50874;24.150;-110.320;2023-06-14T14:57:53;34.60;54.80
64501;DHT22;50874;24.150;-110.320;2023-06-14T15:00:19;34.70;54.80
64501;DHT22;50874;24.150;-110.320;2023-06-14T15:02:46;34.90;54.60
64501;DHT22;50874;24.150;-110.320;2023-06-14T15:05:12;35.10;54.60
64501;DHT22;50874;24.150;-110.320;2023-06-14T15:07:39;35.00;54.10
64501;DHT22;50874;24.150;-110.320;2023-06-14T15:10:07;35.00;53.70
64501;DHT22;50874;24.150;-110.320;2023-06-14T15:12:35;35.20;53.40